createdAt,value
2022-09-06T00:02:06.002Z,19.00
2022-09-06T00:04:36.770Z,18.96
2022-09-06T00:07:07.722Z,18.91
2022-09-06T00:09:38.445Z,18.86
2022-09-06T00:12:09.669Z,18.82
2022-09-06T00:14:40.411Z,18.79
2022-09-06T00:17:11.264Z,18.75
2022-09-06T00:19:41.947Z,18.69
2022-09-06T00:22:12.623Z,18.64
2022-09-06T00:24:43.564Z,18.60
2022-09-06T00:27:14.313Z,18.57
2022-09-06T00:29:45.121Z,18.50
2022-09-06T00:32:16.029Z,18.45
2022-09-06T00:34:46.742Z,18.43
2022-09-06T00:37:17.492Z,18.44
2022-09-06T00:39:48.277Z,18.43
2022-09-06T00:42:19.085Z,18.43
2022-09-06T00:44:51.043Z,18.41
2022-09-06T00:47:22.122Z,18.39
2022-09-06T00:49:56.114Z,18.37
2022-09-06T00:52:28.735Z,18.34
2022-09-06T00:54:59.913Z,18.30
2022-09-06T00:57:32.278Z,18.26
2022-09-06T01:00:05.361Z,18.25
2022-09-06T01:02:36.312Z,18.24
2022-09-06T01:05:09.242Z,18.27
2022-09-06T01:08:03.762Z,18.27
2022-09-06T01:10:57.123Z,18.27
2022-09-06T01:13:38.631Z,18.25
2022-09-06T01:16:17.311Z,18.20
2022-09-06T01:19:15.427Z,18.17
2022-09-06T01:21:55.595Z,18.14
2022-09-06T01:24:44.524Z,18.12
2022-09-06T01:27:45.158Z,18.13
2022-09-06T01:30:19.647Z,18.15
2022-09-06T01:32:57.299Z,18.18
2022-09-06T01:35:35.205Z,18.18
2022-09-06T01:38:07.552Z,18.14
2022-09-06T01:40:38.243Z,18.10
2022-09-06T01:43:12.913Z,18.01
2022-09-06T01:45:55.355Z,17.97
2022-09-06T01:48:38.550Z,17.92
2022-09-06T01:51:19.295Z,17.88
2022-09-06T01:54:17.676Z,17.88
2022-09-06T01:57:00.524Z,17.88
2022-09-06T01:59:45.047Z,17.90
2022-09-06T02:02:21.453Z,17.91
2022-09-06T02:04:58.432Z,17.88
2022-09-06T02:07:32.219Z,17.86
2022-09-06T02:10:08.903Z,17.83
2022-09-06T02:12:42.957Z,17.79
2022-09-06T02:15:16.175Z,17.71
2022-09-06T02:17:54.812Z,17.62
2022-09-06T02:20:32.046Z,17.60
2022-09-06T02:23:06.879Z,17.60
2022-09-06T02:25:40.783Z,17.67
2022-09-06T02:28:12.178Z,17.66
2022-09-06T02:30:47.402Z,17.57
2022-09-06T02:33:21.900Z,17.51
2022-09-06T02:35:55.186Z,17.43
2022-09-06T02:38:28.008Z,17.38
2022-09-06T02:40:59.565Z,17.35
2022-09-06T02:43:30.512Z,17.35
2022-09-06T02:46:01.305Z,17.34
2022-09-06T02:48:32.064Z,17.32
2022-09-06T02:51:06.826Z,17.33
2022-09-06T02:53:38.573Z,17.30
2022-09-06T02:56:09.554Z,17.39
2022-09-06T02:58:40.238Z,17.37
2022-09-06T03:01:11.128Z,17.34
2022-09-06T03:03:42.439Z,17.31
2022-09-06T03:06:13.204Z,17.31
2022-09-06T03:08:43.927Z,17.32
2022-09-06T03:11:14.979Z,17.36
2022-09-06T03:13:45.699Z,17.41
2022-09-06T03:16:16.415Z,17.43
2022-09-06T03:18:47.496Z,17.40
2022-09-06T03:21:18.183Z,17.35
2022-09-06T03:23:49.650Z,17.31
2022-09-06T03:26:20.408Z,17.25
2022-09-06T03:28:51.558Z,17.18
2022-09-06T03:31:22.425Z,17.14
2022-09-06T03:33:53.146Z,17.10
2022-09-06T03:36:23.776Z,17.10
2022-09-06T03:38:55.079Z,17.08
2022-09-06T03:41:25.979Z,17.03
2022-09-06T03:43:56.813Z,17.00
2022-09-06T03:46:30.503Z,17.00
2022-09-06T03:49:02.079Z,16.99
2022-09-06T03:51:32.795Z,16.95
2022-09-06T03:54:03.917Z,16.93
2022-09-06T03:56:34.683Z,16.94
2022-09-06T03:59:05.743Z,16.91
2022-09-06T04:01:36.536Z,16.89
2022-09-06T04:04:07.367Z,16.90
2022-09-06T04:06:38.117Z,16.91
2022-09-06T04:09:08.931Z,16.92
2022-09-06T04:11:39.612Z,16.92
2022-09-06T04:14:10.522Z,16.91
2022-09-06T04:16:41.380Z,16.90
2022-09-06T04:19:12.155Z,16.90
2022-09-06T04:21:42.851Z,16.92
2022-09-06T04:24:13.549Z,16.91
2022-09-06T04:26:44.286Z,16.89
2022-09-06T04:29:15.038Z,16.89
2022-09-06T04:31:45.961Z,16.92
2022-09-06T04:34:17.661Z,16.93
2022-09-06T04:36:48.648Z,16.93
2022-09-06T04:39:19.372Z,16.94
2022-09-06T04:41:50.089Z,16.92
2022-09-06T04:44:20.988Z,16.93
2022-09-06T04:46:51.723Z,16.92
2022-09-06T04:49:23.744Z,16.99
2022-09-06T04:51:54.451Z,16.98
2022-09-06T04:54:25.139Z,16.95
2022-09-06T04:56:55.832Z,16.93
2022-09-06T04:59:26.614Z,16.94
2022-09-06T05:01:57.351Z,17.00
2022-09-06T05:04:28.518Z,17.04
2022-09-06T05:07:05.014Z,17.11
2022-09-06T05:09:36.892Z,17.19
2022-09-06T05:12:08.528Z,17.22
2022-09-06T05:14:39.292Z,17.20
2022-09-06T05:17:09.994Z,17.23
2022-09-06T05:19:40.803Z,17.28
2022-09-06T05:22:11.957Z,17.32
2022-09-06T05:24:42.758Z,17.37
2022-09-06T05:27:14.386Z,17.43
2022-09-06T05:29:45.232Z,17.47
2022-09-06T05:32:21.689Z,17.54
2022-09-06T05:34:52.533Z,17.61
2022-09-06T05:37:23.403Z,17.69
2022-09-06T05:39:54.241Z,17.80
2022-09-06T05:42:25.066Z,18.01
2022-09-06T05:44:55.870Z,18.29
2022-09-06T05:47:26.628Z,18.60
2022-09-06T05:49:58.023Z,18.84
2022-09-06T05:52:29.074Z,19.05
2022-09-06T05:54:59.838Z,19.25
2022-09-06T05:57:30.569Z,19.42
2022-09-06T06:00:01.560Z,19.55
2022-09-06T06:02:42.213Z,19.62
2022-09-06T06:05:13.239Z,19.73
2022-09-06T06:07:44.267Z,19.87
2022-09-06T06:10:14.971Z,19.90
2022-09-06T06:12:45.672Z,19.88
2022-09-06T06:15:16.594Z,19.85
2022-09-06T06:17:47.294Z,19.80
2022-09-06T06:20:18.054Z,19.76
2022-09-06T06:22:48.751Z,19.77
2022-09-06T06:25:23.144Z,19.78
2022-09-06T06:27:53.954Z,19.80
2022-09-06T06:30:24.747Z,19.80
2022-09-06T06:32:55.536Z,19.81
2022-09-06T06:35:26.435Z,19.84
2022-09-06T06:37:57.442Z,19.87
2022-09-06T06:40:28.104Z,19.88
2022-09-06T06:43:00.428Z,19.91
2022-09-06T06:45:31.646Z,19.91
2022-09-06T06:48:02.906Z,19.98
2022-09-06T06:50:33.641Z,20.09
2022-09-06T06:53:04.404Z,20.19
2022-09-06T06:55:35.572Z,20.28
2022-09-06T06:58:06.365Z,20.37
2022-09-06T07:00:37.168Z,20.45
2022-09-06T07:03:08.065Z,20.49
2022-09-06T07:08:30.011Z,20.57
2022-09-06T07:11:00.833Z,20.64
2022-09-06T07:13:33.894Z,20.67
2022-09-06T07:16:13.882Z,20.70
2022-09-06T07:18:45.926Z,20.75
2022-09-06T07:24:09.306Z,20.83
2022-09-06T07:26:41.859Z,20.86
2022-09-06T07:29:12.626Z,20.90
2022-09-06T07:34:37.721Z,20.94
2022-09-06T07:37:08.620Z,20.91
2022-09-06T07:39:39.925Z,20.89
2022-09-06T07:42:11.174Z,20.86
2022-09-06T07:44:41.906Z,20.85
2022-09-06T07:53:13.007Z,20.73
2022-09-06T07:55:45.090Z,20.72
2022-09-06T07:58:15.944Z,20.71
2022-09-06T08:00:46.807Z,20.70
2022-09-06T08:03:17.579Z,20.68
2022-09-06T08:11:31.729Z,20.61
2022-09-06T08:14:05.359Z,20.60
2022-09-06T08:16:38.139Z,20.62
2022-09-06T08:19:11.004Z,20.64
2022-09-06T08:21:42.319Z,20.69
2022-09-06T08:24:13.053Z,20.74
2022-09-06T08:26:43.933Z,20.79
2022-09-06T08:29:15.127Z,20.83
2022-09-06T08:31:46.892Z,20.87
2022-09-06T08:34:17.801Z,20.93
2022-09-06T08:36:48.533Z,20.98
2022-09-06T08:39:19.612Z,21.04
2022-09-06T08:41:55.750Z,21.10
2022-09-06T08:47:22.115Z,21.20
2022-09-06T08:49:56.279Z,21.28
2022-09-06T08:52:54.470Z,21.39
2022-09-06T08:55:42.971Z,21.66
2022-09-06T08:58:26.768Z,21.89
2022-09-06T09:01:04.728Z,22.03
2022-09-06T09:03:36.650Z,22.10
2022-09-06T09:06:10.210Z,22.21
2022-09-06T09:08:48.973Z,22.31
2022-09-06T09:11:22.479Z,22.39
2022-09-06T09:13:59.944Z,22.44
2022-09-06T09:16:30.766Z,22.48
2022-09-06T09:19:04.110Z,22.54
2022-09-06T09:21:38.232Z,22.63
2022-09-06T09:24:11.285Z,22.76
2022-09-06T09:26:51.100Z,22.89
2022-09-06T09:29:27.463Z,22.96
2022-09-06T09:31:59.863Z,22.96
2022-09-06T09:34:35.860Z,22.93
2022-09-06T09:40:19.906Z,22.79
2022-09-06T09:42:51.565Z,22.72
2022-09-06T09:45:29.299Z,22.66
2022-09-06T09:48:16.691Z,22.59
2022-09-06T09:50:47.470Z,22.53
2022-09-06T09:53:21.011Z,22.54
2022-09-06T09:55:56.324Z,22.57
2022-09-06T09:58:34.839Z,22.61
2022-09-06T10:01:24.012Z,22.67
2022-09-06T10:07:10.635Z,22.80
2022-09-06T10:09:43.935Z,22.88
2022-09-06T10:12:19.837Z,22.94
2022-09-06T10:14:51.271Z,22.99
2022-09-06T10:17:30.809Z,23.02
2022-09-06T10:20:05.176Z,23.04
2022-09-06T10:22:44.992Z,23.08
2022-09-06T10:25:31.114Z,23.13
2022-09-06T10:28:31.620Z,23.19
2022-09-06T10:31:47.600Z,23.25
2022-09-06T10:34:42.825Z,23.28
2022-09-06T10:37:26.410Z,23.29
2022-09-06T10:40:05.093Z,23.31
2022-09-06T10:42:44.123Z,23.31
2022-09-06T10:45:37.282Z,23.33
2022-09-06T10:48:15.032Z,23.37
2022-09-06T10:50:51.548Z,23.38
2022-09-06T10:53:37.800Z,23.35
2022-09-06T10:56:12.163Z,23.33
2022-09-06T11:01:44.100Z,23.50
2022-09-06T11:04:24.311Z,23.69
2022-09-06T11:07:01.605Z,23.86
2022-09-06T11:09:36.790Z,24.02
2022-09-06T11:12:13.516Z,24.22
2022-09-06T11:14:44.294Z,24.33
2022-09-06T11:17:23.150Z,24.41
2022-09-06T11:20:03.576Z,24.64
2022-09-06T11:22:58.019Z,24.81
2022-09-06T11:25:59.353Z,24.96
2022-09-06T11:28:36.557Z,25.05
2022-09-06T11:34:20.195Z,25.17
2022-09-06T11:36:52.902Z,25.26
2022-09-06T11:43:04.376Z,25.33
2022-09-06T11:45:47.701Z,25.25
2022-09-06T11:49:03.395Z,25.16
2022-09-06T11:51:40.147Z,25.03
2022-09-06T11:54:25.337Z,25.08
2022-09-06T11:57:00.931Z,25.16
2022-09-06T11:59:40.302Z,25.17
2022-09-06T12:02:33.167Z,25.07
2022-09-06T12:05:27.844Z,25.12
2022-09-06T12:08:32.281Z,25.24
2022-09-06T12:11:22.834Z,25.32
2022-09-06T12:13:58.044Z,25.40
2022-09-06T12:17:07.224Z,25.45
2022-09-06T12:19:49.277Z,25.51
2022-09-06T12:22:56.754Z,25.52
2022-09-06T12:25:57.933Z,25.56
2022-09-06T12:28:36.241Z,25.58
2022-09-06T12:31:35.874Z,25.60
2022-09-06T12:34:13.547Z,25.67
2022-09-06T12:36:57.761Z,25.73
2022-09-06T12:39:29.088Z,25.81
2022-09-06T12:42:02.127Z,25.87
2022-09-06T12:44:36.526Z,25.92
2022-09-06T12:47:11.874Z,26.00
2022-09-06T12:49:42.548Z,26.04
2022-09-06T12:52:15.673Z,26.01
2022-09-06T12:54:49.280Z,25.93
2022-09-06T12:57:24.139Z,25.87
2022-09-06T12:59:57.002Z,25.75
2022-09-06T13:02:41.256Z,25.63
2022-09-06T13:05:15.267Z,25.52
2022-09-06T13:07:51.637Z,25.39
2022-09-06T13:10:25.533Z,25.26
2022-09-06T13:12:58.226Z,25.14
2022-09-06T13:15:31.939Z,25.03
2022-09-06T13:18:23.838Z,24.91
2022-09-06T13:21:05.870Z,24.78
2022-09-06T13:23:45.271Z,24.68
2022-09-06T13:26:16.819Z,24.57
2022-09-06T13:28:47.517Z,24.47
2022-09-06T13:31:23.519Z,24.37
2022-09-06T13:34:00.605Z,24.29
2022-09-06T13:36:32.529Z,24.21
2022-09-06T13:39:03.653Z,24.11
2022-09-06T13:41:42.909Z,23.97
2022-09-06T13:44:31.123Z,23.75
2022-09-06T13:47:02.412Z,23.43
2022-09-06T13:49:34.101Z,23.20
2022-09-06T13:52:06.256Z,22.98
2022-09-06T13:54:37.185Z,22.73
2022-09-06T13:57:09.808Z,22.43
2022-09-06T13:59:42.096Z,22.14
2022-09-06T14:02:17.775Z,21.89
2022-09-06T14:04:48.621Z,21.66
2022-09-06T14:07:19.308Z,21.47
2022-09-06T14:09:51.277Z,21.33
2022-09-06T14:12:20.458Z,21.22
2022-09-06T14:14:51.257Z,21.20
2022-09-06T14:17:22.162Z,21.18
2022-09-06T14:19:52.899Z,21.15
2022-09-06T14:22:23.708Z,21.11
2022-09-06T14:24:55.268Z,21.10
2022-09-06T14:27:26.183Z,21.12
2022-09-06T14:29:56.876Z,21.16
2022-09-06T14:32:27.903Z,21.20
2022-09-06T14:34:58.662Z,21.22
2022-09-06T14:37:29.459Z,21.22
2022-09-06T14:40:00.405Z,21.26
2022-09-06T14:42:31.345Z,21.26
2022-09-06T14:45:02.152Z,21.28
2022-09-06T14:47:33.429Z,21.30
2022-09-06T14:50:04.771Z,21.34
2022-09-06T14:52:35.922Z,21.38
2022-09-06T14:55:07.723Z,21.44
2022-09-06T14:57:38.682Z,21.49
2022-09-06T15:00:12.058Z,21.47
2022-09-06T15:02:44.154Z,21.46
2022-09-06T15:05:15.467Z,21.41
2022-09-06T15:07:46.781Z,21.37
2022-09-06T15:10:19.441Z,21.39
2022-09-06T15:12:50.169Z,21.45
2022-09-06T15:15:21.052Z,21.49
2022-09-06T15:17:51.849Z,21.52
2022-09-06T15:20:22.588Z,21.55
2022-09-06T15:23:15.161Z,21.54
2022-09-06T15:25:50.515Z,21.48
2022-09-06T15:28:22.009Z,21.46
2022-09-06T15:30:52.797Z,21.48
2022-09-06T15:33:23.970Z,21.52
2022-09-06T15:35:58.206Z,21.51
2022-09-06T15:38:29.081Z,21.49
2022-09-06T15:41:08.606Z,21.40
2022-09-06T15:43:42.193Z,21.40
2022-09-06T15:46:12.967Z,21.36
2022-09-06T15:48:46.329Z,21.29
2022-09-06T15:51:20.125Z,21.27
2022-09-06T15:53:50.943Z,21.27
2022-09-06T15:56:21.738Z,21.26
2022-09-06T15:58:52.534Z,21.27
2022-09-06T16:01:25.766Z,21.24
2022-09-06T16:04:03.763Z,21.19
2022-09-06T16:06:33.809Z,21.16
2022-09-06T16:09:07.865Z,21.15
2022-09-06T16:11:39.572Z,21.15
2022-09-06T16:14:13.250Z,21.17
2022-09-06T16:16:44.391Z,21.20
2022-09-06T16:19:15.655Z,21.19
2022-09-06T16:21:46.405Z,21.20
2022-09-06T16:24:18.601Z,21.20
2022-09-06T16:26:49.719Z,21.19
2022-09-06T16:29:21.227Z,21.16
2022-09-06T16:31:59.524Z,21.15
2022-09-06T16:34:30.431Z,21.17
2022-09-06T16:37:04.128Z,21.20
2022-09-06T16:39:34.964Z,21.18
2022-09-06T16:42:06.299Z,21.14
2022-09-06T16:44:37.781Z,21.06
2022-09-06T16:47:08.789Z,21.03
2022-09-06T16:49:39.573Z,21.05
2022-09-06T16:52:10.413Z,21.07
2022-09-06T16:54:41.572Z,21.05
2022-09-06T16:57:12.578Z,21.01
2022-09-06T16:59:43.361Z,20.99
2022-09-06T17:02:14.276Z,20.94
2022-09-06T17:04:45.188Z,20.90
2022-09-06T17:07:16.140Z,20.91
2022-09-06T17:09:47.220Z,20.94
2022-09-06T17:12:18.004Z,20.98
2022-09-06T17:14:48.774Z,20.97
2022-09-06T17:17:19.564Z,20.92
2022-09-06T17:19:50.460Z,20.85
2022-09-06T17:22:21.766Z,20.81
2022-09-06T17:24:52.700Z,20.82
2022-09-06T17:27:24.220Z,20.86
2022-09-06T17:29:55.438Z,20.89
2022-09-06T17:32:27.202Z,20.89
2022-09-06T17:34:58.472Z,20.86
2022-09-06T17:37:29.749Z,20.77
2022-09-06T17:40:01.266Z,20.71
2022-09-06T17:42:32.843Z,20.67
2022-09-06T17:45:04.122Z,20.65
2022-09-06T17:47:35.744Z,20.63
2022-09-06T17:50:08.963Z,20.61
2022-09-06T17:52:39.888Z,20.58
2022-09-06T17:55:11.920Z,20.51
2022-09-06T17:57:42.643Z,20.51
2022-09-06T18:00:16.099Z,20.51
2022-09-06T18:02:46.839Z,20.53
2022-09-06T18:05:18.674Z,20.51
2022-09-06T18:07:49.765Z,20.49
2022-09-06T18:10:21.156Z,20.47
2022-09-06T18:12:52.068Z,20.45
2022-09-06T18:15:22.955Z,20.46
2022-09-06T18:17:53.762Z,20.45
2022-09-06T18:20:25.321Z,20.42
2022-09-06T18:22:56.801Z,20.38
2022-09-06T18:25:28.456Z,20.35
2022-09-06T18:27:59.290Z,20.30
2022-09-06T18:30:30.525Z,20.25
2022-09-06T18:33:02.116Z,20.21
2022-09-06T18:35:34.044Z,20.20
2022-09-06T18:38:05.384Z,20.20
2022-09-06T18:40:42.375Z,20.19
2022-09-06T18:43:13.994Z,20.17
2022-09-06T18:45:48.740Z,20.13
2022-09-06T18:48:20.807Z,20.09
2022-09-06T18:50:54.876Z,20.06
2022-09-06T18:53:28.403Z,20.04
2022-09-06T18:56:02.167Z,20.02
2022-09-06T18:58:34.499Z,19.98
2022-09-06T19:01:14.020Z,19.90
2022-09-06T19:03:46.047Z,19.86
2022-09-06T19:06:20.624Z,19.82
2022-09-06T19:08:54.306Z,19.78
2022-09-06T19:11:26.151Z,19.75
2022-09-06T19:13:58.808Z,19.75
2022-09-06T19:16:31.447Z,19.74
2022-09-06T19:19:07.820Z,19.73
2022-09-06T19:21:42.045Z,19.70
2022-09-06T19:24:15.594Z,19.69
2022-09-06T19:26:47.152Z,19.65
2022-09-06T19:29:19.719Z,19.63
2022-09-06T19:31:50.809Z,19.57
2022-09-06T19:34:22.738Z,19.53
2022-09-06T19:36:55.591Z,19.44
2022-09-06T19:39:34.771Z,19.39
2022-09-06T19:42:09.103Z,19.35
2022-09-06T19:44:39.851Z,19.31
2022-09-06T19:47:10.740Z,19.33
2022-09-06T19:49:41.738Z,19.36
2022-09-06T19:52:12.687Z,19.33
2022-09-06T19:54:43.903Z,19.28
2022-09-06T19:57:15.578Z,19.24
2022-09-06T19:59:46.493Z,19.19
2022-09-06T20:02:17.316Z,19.15
2022-09-06T20:04:48.055Z,19.14
2022-09-06T20:07:18.842Z,19.16
2022-09-06T20:09:52.541Z,19.17
2022-09-06T20:12:24.344Z,19.16
2022-09-06T20:14:55.192Z,19.13
2022-09-06T20:17:34.460Z,19.11
2022-09-06T20:20:06.853Z,19.06
2022-09-06T20:22:36.751Z,19.10
2022-09-06T20:25:09.650Z,19.13
2022-09-06T20:27:44.369Z,19.14
2022-09-06T20:30:16.972Z,19.12
2022-09-06T20:32:47.773Z,19.12
2022-09-06T20:35:19.421Z,19.13
2022-09-06T20:37:50.702Z,19.12
2022-09-06T20:40:21.811Z,19.10
2022-09-06T20:42:53.288Z,19.07
2022-09-06T20:45:25.375Z,19.03
2022-09-06T20:47:56.966Z,19.01
2022-09-06T20:50:27.785Z,18.97
2022-09-06T20:52:58.606Z,18.93
2022-09-06T20:55:29.347Z,18.89
2022-09-06T20:58:00.216Z,18.88
2022-09-06T21:00:31.057Z,18.87
2022-09-06T21:03:01.823Z,18.85
2022-09-06T21:05:32.607Z,18.83
2022-09-06T21:08:03.680Z,18.78
2022-09-06T21:10:34.950Z,18.75
2022-09-06T21:13:05.899Z,18.72
2022-09-06T21:15:37.848Z,18.73
2022-09-06T21:18:09.321Z,18.73
2022-09-06T21:20:40.105Z,18.73
2022-09-06T21:23:10.850Z,18.71
2022-09-06T21:25:41.677Z,18.71
2022-09-06T21:28:12.571Z,18.70
2022-09-06T21:30:43.372Z,18.70
2022-09-06T21:33:14.095Z,18.67
2022-09-06T21:35:44.912Z,18.63
2022-09-06T21:38:16.256Z,18.54
2022-09-06T21:40:47.026Z,18.45
2022-09-06T21:43:17.738Z,18.42
2022-09-06T21:45:48.804Z,18.41
2022-09-06T21:48:19.916Z,18.37
2022-09-06T21:50:51.210Z,18.35
2022-09-06T21:53:23.710Z,18.35
2022-09-06T21:56:00.164Z,18.39
2022-09-06T21:58:31.834Z,18.38
2022-09-06T22:01:04.815Z,18.35
2022-09-06T22:03:39.175Z,18.29
2022-09-06T22:06:15.147Z,18.23
2022-09-06T22:08:47.163Z,18.21
2022-09-06T22:11:19.647Z,18.19
2022-09-06T22:13:51.546Z,18.15
2022-09-06T22:16:24.995Z,18.07
2022-09-06T22:18:56.271Z,18.00
2022-09-06T22:21:27.211Z,17.96
2022-09-06T22:24:00.211Z,17.93
2022-09-06T22:26:32.583Z,17.92
2022-09-06T22:29:05.762Z,17.91
2022-09-06T22:31:37.449Z,17.86
2022-09-06T22:34:08.867Z,17.82
2022-09-06T22:36:40.006Z,17.78
2022-09-06T22:39:11.106Z,17.78
2022-09-06T22:41:42.054Z,17.77
2022-09-06T22:44:13.420Z,17.76
2022-09-06T22:46:44.715Z,17.74
2022-09-06T22:49:16.047Z,17.65
2022-09-06T22:51:46.921Z,17.71
2022-09-06T22:54:17.809Z,17.69
2022-09-06T22:56:48.567Z,17.65
2022-09-06T22:59:19.706Z,17.61
2022-09-06T23:01:52.260Z,17.60
2022-09-06T23:04:23.445Z,17.59
2022-09-06T23:06:54.323Z,17.61
2022-09-06T23:09:25.486Z,17.62
2022-09-06T23:11:56.292Z,17.58
2022-09-06T23:14:28.464Z,17.53
2022-09-06T23:16:57.714Z,17.47
2022-09-06T23:19:28.565Z,17.45
2022-09-06T23:21:59.350Z,17.45
2022-09-06T23:24:30.098Z,17.44
2022-09-06T23:27:02.157Z,17.41
2022-09-06T23:29:33.029Z,17.41
2022-09-06T23:32:04.290Z,17.41
2022-09-06T23:34:35.012Z,17.40
2022-09-06T23:37:07.049Z,17.39
2022-09-06T23:39:37.897Z,17.38
2022-09-06T23:42:09.269Z,17.37
2022-09-06T23:44:39.987Z,17.34
2022-09-06T23:47:10.769Z,17.31
2022-09-06T23:49:41.615Z,17.29
2022-09-06T23:52:12.458Z,17.27
2022-09-06T23:54:43.182Z,17.26
2022-09-06T23:57:13.946Z,17.28
2022-09-06T23:59:44.743Z,17.26
